sensor_id;sensor_type;location;lat;lon;timestamp;P1;durP1;ratioP1;P2;durP2;ratioP2
51764;SDS011;37835;53.256;6.456;2022-12-10T00:01:38;76.53;;;36.80;;
51764;SDS011;37835;53.256;6.456;2022-12-10T00:04:04;84.77;;;37.67;;
51764;SDS011;37835;53.256;6.456;2022-12-10T00:06:31;82.07;;;37.07;;
51764;SDS011;37835;53.256;6.456;2022-12-10T00:08:59;81.87;;;37.20;;
51764;SDS011;37835;53.256;6.456;2022-12-10T00:11:25;77.93;;;36.07;;
51764;SDS011;37835;53.256;6.456;2022-12-10T00:13:52;78.63;;;37.23;;
51764;SDS011;37835;53.256;6.456;2022-12-10T00:16:18;83.27;;;37.53;;
51764;SDS011;37835;53.256;6.456;2022-12-10T00:18:45;88.93;;;38.93;;
51764;SDS011;37835;53.256;6.456;2022-12-10T00:21:14;83.70;;;38.30;;
51764;SDS011;37835;53.256;6.456;2022-12-10T00:23:41;86.83;;;38.00;;
51764;SDS011;37835;53.256;6.456;2022-12-10T00:26:14;82.67;;;37.70;;
51764;SDS011;37835;53.256;6.456;2022-12-10T00:28:41;81.77;;;37.03;;
51764;SDS011;37835;53.256;6.456;2022-12-10T00:31:09;89.47;;;39.53;;
51764;SDS011;37835;53.256;6.456;2022-12-10T00:33:40;88.55;;;39.58;;
51764;SDS011;37835;53.256;6.456;2022-12-10T00:36:07;86.57;;;39.90;;
51764;SDS011;37835;53.256;6.456;2022-12-10T00:38:35;82.43;;;36.60;;
51764;SDS011;37835;53.256;6.456;2022-12-10T00:41:02;89.93;;;39.67;;
51764;SDS011;37835;53.256;6.456;2022-12-10T00:43:28;84.53;;;38.33;;
51764;SDS011;37835;53.256;6.456;2022-12-10T00:45:54;88.20;;;39.93;;
51764;SDS011;37835;53.256;6.456;2022-12-10T00:48:20;87.33;;;39.90;;
51764;SDS011;37835;53.256;6.456;2022-12-10T00:50:59;96.67;;;40.73;;
51764;SDS011;37835;53.256;6.456;2022-12-10T00:53:26;95.93;;;42.53;;
51764;SDS011;37835;53.256;6.456;2022-12-10T00:55:53;89.10;;;40.50;;
51764;SDS011;37835;53.256;6.456;2022-12-10T00:58:19;95.20;;;40.70;;
51764;SDS011;37835;53.256;6.456;2022-12-10T01:00:45;94.50;;;40.03;;
51764;SDS011;37835;53.256;6.456;2022-12-10T01:03:11;90.93;;;39.50;;
51764;SDS011;37835;53.256;6.456;2022-12-10T01:05:37;91.20;;;40.17;;
51764;SDS011;37835;53.256;6.456;2022-12-10T01:08:03;87.53;;;39.10;;
51764;SDS011;37835;53.256;6.456;2022-12-10T01:10:29;89.97;;;39.17;;
51764;SDS011;37835;53.256;6.456;2022-12-10T01:12:54;97.27;;;41.37;;
51764;SDS011;37835;53.256;6.456;2022-12-10T01:15:20;99.67;;;42.70;;
51764;SDS011;37835;53.256;6.456;2022-12-10T01:17:45;88.37;;;39.60;;
51764;SDS011;37835;53.256;6.456;2022-12-10T01:20:11;96.63;;;42.40;;
51764;SDS011;37835;53.256;6.456;2022-12-10T01:22:37;89.37;;;40.63;;
51764;SDS011;37835;53.256;6.456;2022-12-10T01:25:03;96.23;;;41.27;;
51764;SDS011;37835;53.256;6.456;2022-12-10T01:27:29;98.33;;;42.83;;
51764;SDS011;37835;53.256;6.456;2022-12-10T01:29:55;95.27;;;42.47;;
51764;SDS011;37835;53.256;6.456;2022-12-10T01:32:20;94.03;;;42.33;;
51764;SDS011;37835;53.256;6.456;2022-12-10T01:34:46;97.50;;;42.77;;
51764;SDS011;37835;53.256;6.456;2022-12-10T01:37:12;96.93;;;42.57;;
51764;SDS011;37835;53.256;6.456;2022-12-10T01:39:37;95.13;;;42.23;;
51764;SDS011;37835;53.256;6.456;2022-12-10T01:42:04;101.57;;;43.47;;
51764;SDS011;37835;53.256;6.456;2022-12-10T01:46:56;95.97;;;42.97;;
51764;SDS011;37835;53.256;6.456;2022-12-10T01:49:34;107.57;;;44.27;;
51764;SDS011;37835;53.256;6.456;2022-12-10T01:52:01;100.67;;;44.27;;
51764;SDS011;37835;53.256;6.456;2022-12-10T01:54:30;96.37;;;42.87;;
51764;SDS011;37835;53.256;6.456;2022-12-10T01:56:59;98.60;;;42.63;;
51764;SDS011;37835;53.256;6.456;2022-12-10T01:59:29;102.82;;;44.17;;
51764;SDS011;37835;53.256;6.456;2022-12-10T02:04:54;98.17;;;43.37;;
51764;SDS011;37835;53.256;6.456;2022-12-10T02:07:58;100.97;;;42.77;;
51764;SDS011;37835;53.256;6.456;2022-12-10T02:16:19;105.43;;;44.17;;
51764;SDS011;37835;53.256;6.456;2022-12-10T02:19:02;103.50;;;44.77;;
51764;SDS011;37835;53.256;6.456;2022-12-10T02:21:35;101.10;;;43.80;;
51764;SDS011;37835;53.256;6.456;2022-12-10T02:24:07;107.90;;;44.33;;
51764;SDS011;37835;53.256;6.456;2022-12-10T02:27:19;104.22;;;42.05;;
51764;SDS011;37835;53.256;6.456;2022-12-10T02:29:28;107.63;;;42.63;;
51764;SDS011;37835;53.256;6.456;2022-12-10T02:32:06;102.03;;;43.27;;
51764;SDS011;37835;53.256;6.456;2022-12-10T02:34:37;97.47;;;42.60;;
51764;SDS011;37835;53.256;6.456;2022-12-10T02:37:19;102.07;;;42.40;;
51764;SDS011;37835;53.256;6.456;2022-12-10T02:39:49;103.23;;;43.67;;
51764;SDS011;37835;53.256;6.456;2022-12-10T02:42:18;97.83;;;42.83;;
51764;SDS011;37835;53.256;6.456;2022-12-10T02:44:45;104.30;;;44.13;;
51764;SDS011;37835;53.256;6.456;2022-12-10T02:47:13;102.23;;;44.43;;
51764;SDS011;37835;53.256;6.456;2022-12-10T02:49:41;96.27;;;42.73;;
51764;SDS011;37835;53.256;6.456;2022-12-10T02:52:17;111.43;;;45.47;;
51764;SDS011;37835;53.256;6.456;2022-12-10T02:54:45;101.60;;;42.93;;
51764;SDS011;37835;53.256;6.456;2022-12-10T02:58:15;105.17;;;44.87;;
51764;SDS011;37835;53.256;6.456;2022-12-10T03:00:23;103.47;;;43.17;;
51764;SDS011;37835;53.256;6.456;2022-12-10T03:05:33;102.80;;;43.30;;
51764;SDS011;37835;53.256;6.456;2022-12-10T03:08:11;102.20;;;44.40;;
51764;SDS011;37835;53.256;6.456;2022-12-10T03:10:44;99.87;;;42.83;;
51764;SDS011;37835;53.256;6.456;2022-12-10T03:13:28;105.30;;;43.30;;
51764;SDS011;37835;53.256;6.456;2022-12-10T03:15:57;99.97;;;42.38;;
51764;SDS011;37835;53.256;6.456;2022-12-10T03:18:25;100.50;;;42.10;;
51764;SDS011;37835;53.256;6.456;2022-12-10T03:20:52;108.90;;;42.93;;
51764;SDS011;37835;53.256;6.456;2022-12-10T03:23:20;100.10;;;44.00;;
51764;SDS011;37835;53.256;6.456;2022-12-10T03:25:48;98.37;;;43.33;;
51764;SDS011;37835;53.256;6.456;2022-12-10T03:28:15;101.37;;;43.77;;
51764;SDS011;37835;53.256;6.456;2022-12-10T03:30:44;99.67;;;43.50;;
51764;SDS011;37835;53.256;6.456;2022-12-10T03:33:12;107.50;;;43.80;;
51764;SDS011;37835;53.256;6.456;2022-12-10T03:35:38;102.30;;;44.77;;
51764;SDS011;37835;53.256;6.456;2022-12-10T03:38:04;106.70;;;44.43;;
51764;SDS011;37835;53.256;6.456;2022-12-10T03:40:31;110.50;;;44.77;;
51764;SDS011;37835;53.256;6.456;2022-12-10T03:42:56;103.57;;;45.10;;
51764;SDS011;37835;53.256;6.456;2022-12-10T03:45:22;110.90;;;45.47;;
51764;SDS011;37835;53.256;6.456;2022-12-10T03:47:48;109.33;;;44.77;;
51764;SDS011;37835;53.256;6.456;2022-12-10T03:50:14;104.77;;;43.63;;
51764;SDS011;37835;53.256;6.456;2022-12-10T03:52:40;107.30;;;43.83;;
51764;SDS011;37835;53.256;6.456;2022-12-10T03:55:06;102.93;;;46.17;;
51764;SDS011;37835;53.256;6.456;2022-12-10T03:57:32;106.43;;;43.80;;
51764;SDS011;37835;53.256;6.456;2022-12-10T03:59:58;106.57;;;45.27;;
51764;SDS011;37835;53.256;6.456;2022-12-10T04:02:23;105.70;;;44.27;;
51764;SDS011;37835;53.256;6.456;2022-12-10T04:04:49;110.33;;;46.80;;
51764;SDS011;37835;53.256;6.456;2022-12-10T04:07:15;108.47;;;45.60;;
51764;SDS011;37835;53.256;6.456;2022-12-10T04:09:40;107.43;;;46.30;;
51764;SDS011;37835;53.256;6.456;2022-12-10T04:12:06;107.70;;;45.37;;
51764;SDS011;37835;53.256;6.456;2022-12-10T04:14:31;112.07;;;46.70;;
51764;SDS011;37835;53.256;6.456;2022-12-10T04:17:15;106.00;;;45.83;;
51764;SDS011;37835;53.256;6.456;2022-12-10T04:19:41;115.30;;;46.47;;
51764;SDS011;37835;53.256;6.456;2022-12-10T04:22:08;122.67;;;47.97;;
51764;SDS011;37835;53.256;6.456;2022-12-10T04:24:52;119.20;;;47.40;;
51764;SDS011;37835;53.256;6.456;2022-12-10T04:27:38;119.70;;;46.77;;
51764;SDS011;37835;53.256;6.456;2022-12-10T04:30:05;122.03;;;48.60;;
51764;SDS011;37835;53.256;6.456;2022-12-10T04:32:33;128.73;;;49.63;;
51764;SDS011;37835;53.256;6.456;2022-12-10T04:34:58;131.73;;;51.20;;
51764;SDS011;37835;53.256;6.456;2022-12-10T04:37:26;122.23;;;50.03;;
51764;SDS011;37835;53.256;6.456;2022-12-10T04:39:53;129.47;;;49.33;;
51764;SDS011;37835;53.256;6.456;2022-12-10T04:42:19;121.97;;;49.03;;
51764;SDS011;37835;53.256;6.456;2022-12-10T04:44:46;137.10;;;50.00;;
51764;SDS011;37835;53.256;6.456;2022-12-10T04:47:11;129.80;;;50.43;;
51764;SDS011;37835;53.256;6.456;2022-12-10T04:49:37;131.03;;;51.23;;
51764;SDS011;37835;53.256;6.456;2022-12-10T04:52:04;132.87;;;48.37;;
51764;SDS011;37835;53.256;6.456;2022-12-10T04:54:31;135.30;;;50.63;;
51764;SDS011;37835;53.256;6.456;2022-12-10T04:56:56;136.50;;;50.93;;
51764;SDS011;37835;53.256;6.456;2022-12-10T04:59:22;142.33;;;51.77;;
51764;SDS011;37835;53.256;6.456;2022-12-10T05:01:47;131.73;;;50.10;;
51764;SDS011;37835;53.256;6.456;2022-12-10T05:04:14;143.50;;;51.27;;
51764;SDS011;37835;53.256;6.456;2022-12-10T05:06:42;147.53;;;50.90;;
51764;SDS011;37835;53.256;6.456;2022-12-10T05:09:09;151.87;;;49.63;;
51764;SDS011;37835;53.256;6.456;2022-12-10T05:11:36;159.60;;;50.13;;
51764;SDS011;37835;53.256;6.456;2022-12-10T05:14:01;139.57;;;51.53;;
51764;SDS011;37835;53.256;6.456;2022-12-10T05:16:28;168.40;;;52.30;;
51764;SDS011;37835;53.256;6.456;2022-12-10T05:18:55;162.23;;;51.70;;
51764;SDS011;37835;53.256;6.456;2022-12-10T05:21:22;155.37;;;51.47;;
51764;SDS011;37835;53.256;6.456;2022-12-10T05:23:50;139.37;;;48.63;;
51764;SDS011;37835;53.256;6.456;2022-12-10T05:26:18;207.20;;;48.13;;
51764;SDS011;37835;53.256;6.456;2022-12-10T05:28:46;187.70;;;51.23;;
51764;SDS011;37835;53.256;6.456;2022-12-10T05:31:26;159.03;;;49.00;;
51764;SDS011;37835;53.256;6.456;2022-12-10T05:33:54;158.73;;;49.20;;
51764;SDS011;37835;53.256;6.456;2022-12-10T05:36:21;217.63;;;49.20;;
51764;SDS011;37835;53.256;6.456;2022-12-10T05:38:48;171.20;;;49.47;;
51764;SDS011;37835;53.256;6.456;2022-12-10T05:41:15;193.27;;;47.30;;
51764;SDS011;37835;53.256;6.456;2022-12-10T05:43:42;169.60;;;50.53;;
51764;SDS011;37835;53.256;6.456;2022-12-10T05:46:10;155.33;;;49.07;;
51764;SDS011;37835;53.256;6.456;2022-12-10T05:48:39;183.23;;;50.90;;
51764;SDS011;37835;53.256;6.456;2022-12-10T05:51:05;178.43;;;50.63;;
51764;SDS011;37835;53.256;6.456;2022-12-10T05:53:32;158.30;;;51.87;;
51764;SDS011;37835;53.256;6.456;2022-12-10T05:56:00;187.97;;;51.23;;
51764;SDS011;37835;53.256;6.456;2022-12-10T05:58:27;156.93;;;49.03;;
51764;SDS011;37835;53.256;6.456;2022-12-10T06:00:54;205.77;;;50.70;;
51764;SDS011;37835;53.256;6.456;2022-12-10T06:03:20;287.13;;;50.60;;
51764;SDS011;37835;53.256;6.456;2022-12-10T06:05:45;160.77;;;49.57;;
51764;SDS011;37835;53.256;6.456;2022-12-10T06:08:11;152.20;;;48.20;;
51764;SDS011;37835;53.256;6.456;2022-12-10T06:10:36;199.23;;;50.27;;
51764;SDS011;37835;53.256;6.456;2022-12-10T06:13:03;191.10;;;47.73;;
51764;SDS011;37835;53.256;6.456;2022-12-10T06:15:29;178.90;;;46.57;;
51764;SDS011;37835;53.256;6.456;2022-12-10T06:17:55;200.50;;;48.67;;
51764;SDS011;37835;53.256;6.456;2022-12-10T06:20:21;214.73;;;46.83;;
51764;SDS011;37835;53.256;6.456;2022-12-10T06:22:48;156.63;;;46.03;;
51764;SDS011;37835;53.256;6.456;2022-12-10T06:25:14;174.23;;;44.93;;
51764;SDS011;37835;53.256;6.456;2022-12-10T06:27:39;204.00;;;47.10;;
51764;SDS011;37835;53.256;6.456;2022-12-10T06:30:05;199.43;;;45.60;;
51764;SDS011;37835;53.256;6.456;2022-12-10T06:32:31;184.73;;;46.00;;
51764;SDS011;37835;53.256;6.456;2022-12-10T06:34:57;196.87;;;45.67;;
51764;SDS011;37835;53.256;6.456;2022-12-10T06:37:22;155.27;;;46.17;;
51764;SDS011;37835;53.256;6.456;2022-12-10T06:39:49;216.87;;;44.47;;
51764;SDS011;37835;53.256;6.456;2022-12-10T06:42:18;175.77;;;42.67;;
51764;SDS011;37835;53.256;6.456;2022-12-10T06:44:45;146.10;;;42.90;;
51764;SDS011;37835;53.256;6.456;2022-12-10T06:47:11;158.10;;;42.43;;
51764;SDS011;37835;53.256;6.456;2022-12-10T06:49:37;183.47;;;45.53;;
51764;SDS011;37835;53.256;6.456;2022-12-10T06:52:02;245.03;;;44.73;;
51764;SDS011;37835;53.256;6.456;2022-12-10T06:54:28;189.50;;;44.17;;
51764;SDS011;37835;53.256;6.456;2022-12-10T06:56:54;197.53;;;44.97;;
51764;SDS011;37835;53.256;6.456;2022-12-10T06:59:20;191.60;;;44.13;;
51764;SDS011;37835;53.256;6.456;2022-12-10T07:01:45;179.83;;;43.60;;
51764;SDS011;37835;53.256;6.456;2022-12-10T07:04:11;282.30;;;47.90;;
51764;SDS011;37835;53.256;6.456;2022-12-10T07:06:37;213.07;;;44.93;;
51764;SDS011;37835;53.256;6.456;2022-12-10T07:09:03;229.53;;;44.50;;
51764;SDS011;37835;53.256;6.456;2022-12-10T07:11:28;184.43;;;41.73;;
51764;SDS011;37835;53.256;6.456;2022-12-10T07:13:55;170.17;;;41.27;;
51764;SDS011;37835;53.256;6.456;2022-12-10T07:16:23;163.03;;;43.13;;
51764;SDS011;37835;53.256;6.456;2022-12-10T07:18:50;194.17;;;43.90;;
51764;SDS011;37835;53.256;6.456;2022-12-10T07:21:21;139.93;;;43.07;;
51764;SDS011;37835;53.256;6.456;2022-12-10T07:23:47;173.47;;;43.53;;
51764;SDS011;37835;53.256;6.456;2022-12-10T07:26:12;215.87;;;44.10;;
51764;SDS011;37835;53.256;6.456;2022-12-10T07:28:38;219.80;;;44.23;;
51764;SDS011;37835;53.256;6.456;2022-12-10T07:31:05;196.50;;;42.30;;
51764;SDS011;37835;53.256;6.456;2022-12-10T07:33:32;187.20;;;46.50;;
51764;SDS011;37835;53.256;6.456;2022-12-10T07:35:58;175.77;;;46.93;;
51764;SDS011;37835;53.256;6.456;2022-12-10T07:38:24;145.00;;;44.23;;
51764;SDS011;37835;53.256;6.456;2022-12-10T07:40:50;193.63;;;44.50;;
51764;SDS011;37835;53.256;6.456;2022-12-10T07:43:16;168.60;;;45.93;;
51764;SDS011;37835;53.256;6.456;2022-12-10T07:45:42;192.87;;;43.80;;
51764;SDS011;37835;53.256;6.456;2022-12-10T07:48:08;185.47;;;44.70;;
51764;SDS011;37835;53.256;6.456;2022-12-10T07:50:34;252.20;;;43.80;;
51764;SDS011;37835;53.256;6.456;2022-12-10T07:53:00;153.43;;;40.40;;
51764;SDS011;37835;53.256;6.456;2022-12-10T07:55:26;162.47;;;42.03;;
51764;SDS011;37835;53.256;6.456;2022-12-10T07:57:52;231.87;;;43.33;;
51764;SDS011;37835;53.256;6.456;2022-12-10T08:00:17;142.40;;;40.77;;
51764;SDS011;37835;53.256;6.456;2022-12-10T08:02:43;174.47;;;40.97;;
51764;SDS011;37835;53.256;6.456;2022-12-10T08:05:09;156.10;;;40.60;;
51764;SDS011;37835;53.256;6.456;2022-12-10T08:07:34;167.07;;;40.53;;
51764;SDS011;37835;53.256;6.456;2022-12-10T08:10:00;210.70;;;44.87;;
51764;SDS011;37835;53.256;6.456;2022-12-10T08:12:26;231.73;;;43.03;;
51764;SDS011;37835;53.256;6.456;2022-12-10T08:14:52;222.47;;;43.90;;
51764;SDS011;37835;53.256;6.456;2022-12-10T08:17:17;201.23;;;43.77;;
51764;SDS011;37835;53.256;6.456;2022-12-10T08:19:43;203.83;;;44.43;;
51764;SDS011;37835;53.256;6.456;2022-12-10T08:22:08;181.03;;;45.37;;
51764;SDS011;37835;53.256;6.456;2022-12-10T08:24:34;185.73;;;43.73;;
51764;SDS011;37835;53.256;6.456;2022-12-10T08:26:59;229.17;;;42.10;;
51764;SDS011;37835;53.256;6.456;2022-12-10T08:29:25;165.00;;;42.37;;
51764;SDS011;37835;53.256;6.456;2022-12-10T08:31:51;132.87;;;41.07;;
51764;SDS011;37835;53.256;6.456;2022-12-10T08:34:17;167.13;;;41.67;;
51764;SDS011;37835;53.256;6.456;2022-12-10T08:36:43;157.03;;;39.07;;
51764;SDS011;37835;53.256;6.456;2022-12-10T08:39:09;139.93;;;41.13;;
51764;SDS011;37835;53.256;6.456;2022-12-10T08:41:40;192.30;;;44.50;;
51764;SDS011;37835;53.256;6.456;2022-12-10T08:44:07;168.50;;;45.53;;
51764;SDS011;37835;53.256;6.456;2022-12-10T08:46:32;187.43;;;45.17;;
51764;SDS011;37835;53.256;6.456;2022-12-10T08:48:59;193.40;;;46.57;;
51764;SDS011;37835;53.256;6.456;2022-12-10T08:51:25;172.27;;;43.97;;
51764;SDS011;37835;53.256;6.456;2022-12-10T08:53:51;234.43;;;45.93;;
51764;SDS011;37835;53.256;6.456;2022-12-10T08:56:16;187.73;;;43.67;;
51764;SDS011;37835;53.256;6.456;2022-12-10T08:58:42;178.63;;;44.17;;
51764;SDS011;37835;53.256;6.456;2022-12-10T09:01:08;193.80;;;40.07;;
51764;SDS011;37835;53.256;6.456;2022-12-10T09:03:35;188.70;;;40.33;;
51764;SDS011;37835;53.256;6.456;2022-12-10T09:06:05;163.50;;;39.93;;
51764;SDS011;37835;53.256;6.456;2022-12-10T09:08:33;148.23;;;40.47;;
51764;SDS011;37835;53.256;6.456;2022-12-10T09:11:09;161.53;;;42.87;;
51764;SDS011;37835;53.256;6.456;2022-12-10T09:13:37;210.37;;;50.17;;
51764;SDS011;37835;53.256;6.456;2022-12-10T09:16:04;202.87;;;47.17;;
51764;SDS011;37835;53.256;6.456;2022-12-10T09:18:30;217.97;;;46.97;;
51764;SDS011;37835;53.256;6.456;2022-12-10T09:20:55;188.77;;;46.37;;
51764;SDS011;37835;53.256;6.456;2022-12-10T09:23:21;178.00;;;46.03;;
51764;SDS011;37835;53.256;6.456;2022-12-10T09:25:47;145.40;;;39.40;;
51764;SDS011;37835;53.256;6.456;2022-12-10T09:28:12;137.97;;;37.97;;
51764;SDS011;37835;53.256;6.456;2022-12-10T09:30:38;119.53;;;38.13;;
51764;SDS011;37835;53.256;6.456;2022-12-10T09:33:04;114.27;;;36.77;;
51764;SDS011;37835;53.256;6.456;2022-12-10T09:35:30;123.43;;;36.00;;
51764;SDS011;37835;53.256;6.456;2022-12-10T09:37:55;138.37;;;37.93;;
51764;SDS011;37835;53.256;6.456;2022-12-10T09:40:24;123.97;;;37.40;;
51764;SDS011;37835;53.256;6.456;2022-12-10T09:43:06;122.00;;;36.47;;
51764;SDS011;37835;53.256;6.456;2022-12-10T09:45:45;117.67;;;35.40;;
51764;SDS011;37835;53.256;6.456;2022-12-10T09:48:39;133.63;;;36.20;;
51764;SDS011;37835;53.256;6.456;2022-12-10T09:51:27;114.60;;;33.93;;
51764;SDS011;37835;53.256;6.456;2022-12-10T09:53:56;125.43;;;34.00;;
51764;SDS011;37835;53.256;6.456;2022-12-10T09:56:41;117.57;;;35.57;;
51764;SDS011;37835;53.256;6.456;2022-12-10T09:59:12;106.57;;;34.53;;
51764;SDS011;37835;53.256;6.456;2022-12-10T10:01:47;102.67;;;34.73;;
51764;SDS011;37835;53.256;6.456;2022-12-10T10:04:21;104.57;;;33.53;;
51764;SDS011;37835;53.256;6.456;2022-12-10T10:06:48;115.47;;;34.93;;
51764;SDS011;37835;53.256;6.456;2022-12-10T10:09:13;100.43;;;34.67;;
51764;SDS011;37835;53.256;6.456;2022-12-10T10:11:40;117.87;;;36.40;;
51764;SDS011;37835;53.256;6.456;2022-12-10T10:14:12;128.47;;;39.93;;
51764;SDS011;37835;53.256;6.456;2022-12-10T10:19:26;142.47;;;38.80;;
51764;SDS011;37835;53.256;6.456;2022-12-10T10:21:56;126.60;;;37.77;;
51764;SDS011;37835;53.256;6.456;2022-12-10T10:24:25;111.43;;;38.20;;
51764;SDS011;37835;53.256;6.456;2022-12-10T10:27:12;91.47;;;32.20;;
51764;SDS011;37835;53.256;6.456;2022-12-10T10:29:50;96.83;;;35.47;;
51764;SDS011;37835;53.256;6.456;2022-12-10T10:34:46;93.33;;;31.00;;
51764;SDS011;37835;53.256;6.456;2022-12-10T10:37:29;87.80;;;30.37;;
51764;SDS011;37835;53.256;6.456;2022-12-10T10:39:56;96.33;;;34.17;;
51764;SDS011;37835;53.256;6.456;2022-12-10T10:42:36;94.10;;;34.40;;
51764;SDS011;37835;53.256;6.456;2022-12-10T10:45:06;90.93;;;33.37;;
51764;SDS011;37835;53.256;6.456;2022-12-10T10:47:51;101.93;;;33.07;;
51764;SDS011;37835;53.256;6.456;2022-12-10T10:50:30;110.80;;;35.33;;
51764;SDS011;37835;53.256;6.456;2022-12-10T10:53:00;126.93;;;37.20;;
51764;SDS011;37835;53.256;6.456;2022-12-10T10:55:33;123.50;;;38.63;;
51764;SDS011;37835;53.256;6.456;2022-12-10T10:58:00;127.33;;;37.60;;
51764;SDS011;37835;53.256;6.456;2022-12-10T11:00:26;120.30;;;36.57;;
51764;SDS011;37835;53.256;6.456;2022-12-10T11:02:52;117.30;;;37.90;;
51764;SDS011;37835;53.256;6.456;2022-12-10T11:05:21;85.43;;;33.13;;
51764;SDS011;37835;53.256;6.456;2022-12-10T11:07:57;143.30;;;37.70;;
51764;SDS011;37835;53.256;6.456;2022-12-10T11:10:28;110.43;;;37.00;;
51764;SDS011;37835;53.256;6.456;2022-12-10T11:12:58;128.63;;;35.83;;
51764;SDS011;37835;53.256;6.456;2022-12-10T11:15:41;147.37;;;38.57;;
51764;SDS011;37835;53.256;6.456;2022-12-10T11:18:22;131.60;;;36.80;;
51764;SDS011;37835;53.256;6.456;2022-12-10T11:20:58;117.43;;;36.57;;
51764;SDS011;37835;53.256;6.456;2022-12-10T11:23:39;101.82;;;36.22;;
51764;SDS011;37835;53.256;6.456;2022-12-10T11:37:22;122.17;;;42.43;;
51764;SDS011;37835;53.256;6.456;2022-12-10T11:46:24;123.30;;;38.70;;
51764;SDS011;37835;53.256;6.456;2022-12-10T12:00:23;121.20;;;40.70;;
51764;SDS011;37835;53.256;6.456;2022-12-10T12:13:52;129.77;;;42.03;;
51764;SDS011;37835;53.256;6.456;2022-12-10T12:19:13;118.43;;;39.87;;
51764;SDS011;37835;53.256;6.456;2022-12-10T12:21:44;144.40;;;42.97;;
51764;SDS011;37835;53.256;6.456;2022-12-10T12:24:34;114.70;;;38.40;;
51764;SDS011;37835;53.256;6.456;2022-12-10T12:27:05;106.27;;;36.07;;
51764;SDS011;37835;53.256;6.456;2022-12-10T12:32:31;110.57;;;34.17;;
51764;SDS011;37835;53.256;6.456;2022-12-10T12:37:53;115.27;;;39.07;;
51764;SDS011;37835;53.256;6.456;2022-12-10T12:40:35;104.60;;;36.33;;
51764;SDS011;37835;53.256;6.456;2022-12-10T12:43:25;128.30;;;41.60;;
51764;SDS011;37835;53.256;6.456;2022-12-10T12:46:19;134.27;;;43.60;;
51764;SDS011;37835;53.256;6.456;2022-12-10T12:49:02;111.93;;;38.43;;
51764;SDS011;37835;53.256;6.456;2022-12-10T12:51:43;144.57;;;44.03;;
51764;SDS011;37835;53.256;6.456;2022-12-10T12:54:15;152.40;;;53.37;;
51764;SDS011;37835;53.256;6.456;2022-12-10T13:02:06;119.67;;;42.17;;
51764;SDS011;37835;53.256;6.456;2022-12-10T13:04:42;112.93;;;37.93;;
51764;SDS011;37835;53.256;6.456;2022-12-10T13:09:44;115.22;;;40.53;;
51764;SDS011;37835;53.256;6.456;2022-12-10T13:23:04;92.17;;;30.13;;
51764;SDS011;37835;53.256;6.456;2022-12-10T13:33:47;101.23;;;31.33;;
51764;SDS011;37835;53.256;6.456;2022-12-10T13:36:34;101.13;;;33.10;;
51764;SDS011;37835;53.256;6.456;2022-12-10T13:41:27;94.30;;;31.17;;
51764;SDS011;37835;53.256;6.456;2022-12-10T13:44:30;107.37;;;29.43;;
51764;SDS011;37835;53.256;6.456;2022-12-10T13:49:58;95.00;;;31.97;;
51764;SDS011;37835;53.256;6.456;2022-12-10T14:00:49;91.27;;;29.63;;
51764;SDS011;37835;53.256;6.456;2022-12-10T14:06:34;97.47;;;30.73;;
51764;SDS011;37835;53.256;6.456;2022-12-10T14:09:09;92.57;;;31.27;;
51764;SDS011;37835;53.256;6.456;2022-12-10T14:11:39;90.07;;;30.57;;
51764;SDS011;37835;53.256;6.456;2022-12-10T14:14:11;96.57;;;33.17;;
51764;SDS011;37835;53.256;6.456;2022-12-10T14:16:48;107.37;;;31.93;;
51764;SDS011;37835;53.256;6.456;2022-12-10T14:19:14;117.97;;;34.67;;
51764;SDS011;37835;53.256;6.456;2022-12-10T14:21:42;102.07;;;34.20;;
51764;SDS011;37835;53.256;6.456;2022-12-10T14:24:58;106.60;;;34.40;;
51764;SDS011;37835;53.256;6.456;2022-12-10T14:27:14;106.30;;;32.70;;
51764;SDS011;37835;53.256;6.456;2022-12-10T14:29:43;111.13;;;32.80;;
51764;SDS011;37835;53.256;6.456;2022-12-10T14:32:17;115.50;;;34.30;;
51764;SDS011;37835;53.256;6.456;2022-12-10T14:34:51;129.80;;;34.17;;
51764;SDS011;37835;53.256;6.456;2022-12-10T14:37:21;109.20;;;34.37;;
51764;SDS011;37835;53.256;6.456;2022-12-10T14:39:49;125.93;;;34.20;;
51764;SDS011;37835;53.256;6.456;2022-12-10T14:42:15;113.30;;;34.37;;
51764;SDS011;37835;53.256;6.456;2022-12-10T14:44:42;123.73;;;37.07;;
51764;SDS011;37835;53.256;6.456;2022-12-10T14:47:16;111.97;;;34.90;;
51764;SDS011;37835;53.256;6.456;2022-12-10T14:49:45;114.77;;;35.37;;
51764;SDS011;37835;53.256;6.456;2022-12-10T14:52:13;127.63;;;41.33;;
51764;SDS011;37835;53.256;6.456;2022-12-10T14:54:45;246.63;;;76.80;;
51764;SDS011;37835;53.256;6.456;2022-12-10T14:57:24;165.60;;;60.27;;
51764;SDS011;37835;53.256;6.456;2022-12-10T15:02:37;128.17;;;44.43;;
51764;SDS011;37835;53.256;6.456;2022-12-10T15:07:58;118.67;;;36.63;;
51764;SDS011;37835;53.256;6.456;2022-12-10T15:10:34;120.43;;;37.17;;
51764;SDS011;37835;53.256;6.456;2022-12-10T15:13:03;118.20;;;37.77;;
51764;SDS011;37835;53.256;6.456;2022-12-10T15:15:38;110.57;;;36.70;;
51764;SDS011;37835;53.256;6.456;2022-12-10T15:20:37;109.10;;;34.03;;
51764;SDS011;37835;53.256;6.456;2022-12-10T15:28:32;103.50;;;31.43;;
51764;SDS011;37835;53.256;6.456;2022-12-10T15:33:51;110.03;;;30.67;;
51764;SDS011;37835;53.256;6.456;2022-12-10T15:38:45;93.23;;;27.87;;
51764;SDS011;37835;53.256;6.456;2022-12-10T15:41:22;96.87;;;28.97;;
51764;SDS011;37835;53.256;6.456;2022-12-10T15:44:00;96.63;;;30.43;;
51764;SDS011;37835;53.256;6.456;2022-12-10T15:46:27;97.97;;;28.97;;
51764;SDS011;37835;53.256;6.456;2022-12-10T15:48:53;104.13;;;30.00;;
51764;SDS011;37835;53.256;6.456;2022-12-10T15:51:19;127.43;;;29.77;;
51764;SDS011;37835;53.256;6.456;2022-12-10T15:53:45;94.30;;;29.60;;
51764;SDS011;37835;53.256;6.456;2022-12-10T15:56:10;100.07;;;29.90;;
51764;SDS011;37835;53.256;6.456;2022-12-10T15:58:36;94.80;;;30.27;;
51764;SDS011;37835;53.256;6.456;2022-12-10T16:01:01;102.23;;;30.80;;
51764;SDS011;37835;53.256;6.456;2022-12-10T16:03:27;103.27;;;30.13;;
51764;SDS011;37835;53.256;6.456;2022-12-10T16:05:54;101.40;;;30.47;;
51764;SDS011;37835;53.256;6.456;2022-12-10T16:08:21;94.13;;;28.77;;
51764;SDS011;37835;53.256;6.456;2022-12-10T16:10:53;90.43;;;29.10;;
51764;SDS011;37835;53.256;6.456;2022-12-10T16:13:22;95.20;;;29.80;;
51764;SDS011;37835;53.256;6.456;2022-12-10T16:15:58;102.33;;;30.83;;
51764;SDS011;37835;53.256;6.456;2022-12-10T16:18:29;96.97;;;32.93;;
51764;SDS011;37835;53.256;6.456;2022-12-10T16:20:54;94.70;;;30.17;;
51764;SDS011;37835;53.256;6.456;2022-12-10T16:23:20;98.00;;;33.73;;
51764;SDS011;37835;53.256;6.456;2022-12-10T16:25:45;87.77;;;30.97;;
51764;SDS011;37835;53.256;6.456;2022-12-10T16:28:13;94.40;;;31.33;;
51764;SDS011;37835;53.256;6.456;2022-12-10T16:30:42;102.13;;;31.10;;
51764;SDS011;37835;53.256;6.456;2022-12-10T16:33:14;88.43;;;31.23;;
51764;SDS011;37835;53.256;6.456;2022-12-10T16:35:42;99.80;;;31.53;;